createdAt,value
2019-03-30T00:01:04.709Z,14.15
2019-03-30T00:03:35.370Z,12.90
2019-03-30T00:06:06.149Z,13.77
2019-03-30T00:08:36.970Z,13.70
2019-03-30T00:11:07.826Z,13.97
2019-03-30T00:13:38.509Z,12.90
2019-03-30T00:16:09.272Z,13.57
2019-03-30T00:18:41.553Z,13.10
2019-03-30T00:21:12.465Z,14.67
2019-03-30T00:23:44.786Z,12.80
2019-03-30T00:26:15.572Z,13.13
2019-03-30T00:28:47.200Z,13.30
2019-03-30T00:31:18.865Z,12.50
2019-03-30T00:33:51.201Z,13.07
2019-03-30T00:36:22.047Z,13.97
2019-03-30T00:38:52.941Z,13.45
2019-03-30T00:41:23.770Z,13.40
2019-03-30T00:43:56.160Z,13.47
2019-03-30T00:46:27.363Z,13.45
2019-03-30T00:48:58.063Z,12.30
2019-03-30T00:51:28.835Z,13.50
2019-03-30T00:54:00.328Z,12.60
2019-03-30T00:56:31.099Z,12.63
2019-03-30T00:59:02.666Z,13.83
2019-03-30T01:01:33.502Z,13.10
2019-03-30T01:04:04.266Z,13.13
2019-03-30T01:06:35.930Z,11.80
2019-03-30T01:09:09.020Z,12.90
2019-03-30T01:11:39.866Z,12.07
2019-03-30T01:14:10.546Z,12.73
2019-03-30T01:16:41.365Z,13.07
2019-03-30T01:19:12.102Z,12.87
2019-03-30T01:21:42.866Z,13.23
2019-03-30T01:24:13.631Z,13.07
2019-03-30T01:26:44.329Z,13.33
2019-03-30T01:29:16.294Z,13.30
2019-03-30T01:31:47.226Z,13.63
2019-03-30T01:34:19.024Z,13.05
2019-03-30T01:36:49.729Z,12.33
2019-03-30T01:39:20.687Z,11.73
2019-03-30T01:41:51.386Z,12.67
2019-03-30T01:44:22.106Z,12.37
2019-03-30T01:46:52.800Z,12.10
2019-03-30T01:49:24.312Z,11.97
2019-03-30T01:51:55.048Z,12.55
2019-03-30T01:54:25.879Z,12.40
2019-03-30T01:56:56.644Z,11.23
2019-03-30T01:59:27.422Z,12.30
2019-03-30T02:01:59.050Z,11.70
2019-03-30T02:04:29.888Z,12.17
2019-03-30T02:07:00.681Z,11.93
2019-03-30T02:09:31.452Z,11.50
2019-03-30T02:12:02.367Z,13.23
2019-03-30T02:14:33.120Z,12.85
2019-03-30T02:17:03.876Z,12.85
2019-03-30T02:19:34.660Z,11.80
2019-03-30T02:22:06.981Z,12.73
2019-03-30T02:24:37.770Z,13.80
2019-03-30T02:27:08.529Z,12.93
2019-03-30T02:29:39.203Z,12.30
2019-03-30T02:32:10.131Z,12.70
2019-03-30T02:34:40.908Z,11.68
2019-03-30T02:37:13.305Z,12.63
2019-03-30T02:39:45.593Z,11.77
2019-03-30T02:42:16.396Z,11.90
2019-03-30T02:44:47.113Z,12.07
2019-03-30T02:47:17.794Z,11.63
2019-03-30T02:49:48.578Z,12.00
2019-03-30T02:52:19.299Z,12.00
2019-03-30T02:54:50.029Z,11.63
2019-03-30T02:57:21.544Z,12.33
2019-03-30T02:59:52.241Z,12.70
2019-03-30T03:02:47.727Z,11.85
2019-03-30T03:05:45.037Z,12.40
2019-03-30T03:08:42.234Z,13.13
2019-03-30T03:11:40.504Z,12.70
2019-03-30T03:14:36.542Z,13.03
2019-03-30T03:17:33.679Z,12.40
2019-03-30T03:20:29.703Z,11.88
2019-03-30T03:23:26.257Z,12.57
2019-03-30T03:26:22.473Z,13.67
2019-03-30T03:29:18.823Z,13.00
2019-03-30T03:32:15.469Z,13.10
2019-03-30T03:35:12.423Z,13.50
2019-03-30T03:38:10.411Z,12.47
2019-03-30T03:41:06.748Z,13.60
2019-03-30T03:44:04.840Z,11.90
2019-03-30T03:47:00.891Z,13.17
2019-03-30T03:49:58.150Z,12.23
2019-03-30T03:52:53.424Z,13.80
2019-03-30T03:55:50.029Z,15.90
2019-03-30T03:58:45.674Z,16.50
2019-03-30T04:01:42.626Z,20.70
2019-03-30T04:04:40.965Z,16.30
2019-03-30T04:07:38.109Z,14.90
2019-03-30T04:10:35.231Z,14.90
2019-03-30T04:13:31.254Z,13.80
2019-03-30T04:16:29.028Z,14.30
2019-03-30T04:19:25.177Z,14.90
2019-03-30T04:22:21.643Z,15.93
2019-03-30T04:25:20.401Z,15.17
2019-03-30T04:28:16.486Z,14.35
2019-03-30T04:31:14.354Z,13.63
2019-03-30T04:34:11.406Z,13.10
2019-03-30T04:37:09.629Z,14.47
2019-03-30T04:40:06.895Z,15.53
2019-03-30T04:43:04.051Z,14.53
2019-03-30T04:46:02.107Z,13.00
2019-03-30T04:48:58.439Z,13.20
2019-03-30T04:51:57.700Z,12.37
2019-03-30T04:54:59.656Z,12.03
2019-03-30T04:57:57.714Z,13.13
2019-03-30T05:00:54.157Z,12.85
2019-03-30T05:03:51.052Z,14.27
2019-03-30T05:06:49.180Z,14.40
2019-03-30T05:09:45.077Z,12.37
2019-03-30T05:12:42.504Z,13.60
2019-03-30T05:15:39.129Z,14.70
2019-03-30T05:18:36.309Z,15.13
2019-03-30T05:21:32.436Z,13.33
2019-03-30T05:24:30.766Z,13.73
2019-03-30T05:27:27.861Z,17.55
2019-03-30T05:30:24.931Z,15.90
2019-03-30T05:33:22.370Z,15.87
2019-03-30T05:36:19.428Z,15.23
2019-03-30T05:39:17.751Z,15.80
2019-03-30T05:42:16.002Z,14.30
2019-03-30T05:45:15.419Z,13.30
2019-03-30T05:48:12.534Z,16.55
2019-03-30T05:51:08.830Z,15.00
2019-03-30T05:54:05.016Z,14.83
2019-03-30T05:57:03.201Z,15.43
2019-03-30T06:00:00.299Z,16.90
2019-03-30T06:02:57.577Z,13.32
2019-03-30T06:05:56.544Z,13.80
2019-03-30T06:08:53.638Z,15.20
2019-03-30T06:11:49.528Z,14.60
2019-03-30T06:14:46.567Z,15.33
2019-03-30T06:17:42.641Z,14.87
2019-03-30T06:20:39.754Z,17.63
2019-03-30T06:23:35.622Z,18.93
2019-03-30T06:26:33.739Z,15.30
2019-03-30T06:29:30.639Z,17.63
2019-03-30T06:32:26.257Z,16.93
2019-03-30T06:35:24.445Z,18.40
2019-03-30T06:38:20.721Z,16.50
2019-03-30T06:41:18.213Z,16.27
2019-03-30T06:44:15.290Z,16.73
2019-03-30T06:47:12.354Z,17.23
2019-03-30T06:50:09.507Z,17.10
2019-03-30T06:53:05.470Z,19.33
2019-03-30T06:56:02.646Z,17.35
2019-03-30T06:58:59.308Z,19.32
2019-03-30T07:01:56.414Z,17.43
2019-03-30T07:04:52.572Z,17.60
2019-03-30T07:07:51.880Z,18.63
2019-03-30T07:10:47.915Z,19.30
2019-03-30T07:13:45.276Z,16.97
2019-03-30T07:16:42.504Z,17.83
2019-03-30T07:19:39.896Z,20.50
2019-03-30T07:22:37.009Z,19.40
2019-03-30T07:25:32.417Z,20.80
2019-03-30T07:28:29.983Z,20.37
2019-03-30T07:31:26.134Z,19.10
2019-03-30T07:34:23.258Z,17.90
2019-03-30T07:37:21.691Z,19.73
2019-03-30T07:40:17.921Z,20.93
2019-03-30T07:43:16.268Z,18.67
2019-03-30T07:46:13.366Z,17.67
2019-03-30T07:49:10.510Z,18.93
2019-03-30T07:52:05.718Z,18.80
2019-03-30T07:55:03.078Z,18.55
2019-03-30T07:57:59.940Z,19.70
2019-03-30T08:00:56.765Z,17.93
2019-03-30T08:03:54.822Z,19.07
2019-03-30T08:06:52.327Z,19.40
2019-03-30T08:09:50.531Z,18.67
2019-03-30T08:12:46.845Z,18.80
2019-03-30T08:15:44.111Z,18.07
2019-03-30T08:18:41.363Z,18.32
2019-03-30T08:21:38.934Z,18.77
2019-03-30T08:24:34.820Z,20.40
2019-03-30T08:27:32.599Z,18.07
2019-03-30T08:30:30.124Z,19.80
2019-03-30T08:33:26.418Z,19.80
2019-03-30T08:36:23.567Z,18.40
2019-03-30T08:39:19.912Z,18.57
2019-03-30T08:42:17.455Z,19.00
2019-03-30T08:45:14.679Z,17.93
2019-03-30T08:48:13.677Z,19.10
2019-03-30T08:51:13.653Z,19.00
2019-03-30T08:54:19.335Z,19.67
2019-03-30T08:57:17.698Z,20.40
2019-03-30T09:00:13.957Z,18.30
2019-03-30T09:03:11.415Z,20.73
2019-03-30T09:06:08.904Z,19.90
2019-03-30T09:09:07.085Z,20.40
2019-03-30T09:12:03.697Z,20.83
2019-03-30T09:15:02.385Z,22.25
2019-03-30T09:18:00.130Z,22.07
2019-03-30T09:20:57.423Z,21.50
2019-03-30T09:24:08.427Z,22.93
2019-03-30T09:26:51.007Z,22.90
2019-03-30T09:29:48.403Z,22.47
2019-03-30T09:32:45.321Z,23.30
2019-03-30T09:35:42.141Z,24.57
2019-03-30T09:38:39.787Z,22.63
2019-03-30T09:41:35.854Z,21.27
2019-03-30T09:44:33.117Z,21.90
2019-03-30T09:47:31.601Z,22.37
2019-03-30T09:50:28.841Z,23.97
2019-03-30T09:53:25.492Z,22.63
2019-03-30T09:56:24.110Z,23.40
2019-03-30T09:59:21.447Z,22.40
2019-03-30T10:02:18.755Z,22.27
2019-03-30T10:05:14.405Z,22.07
2019-03-30T10:08:12.679Z,20.30
2019-03-30T10:11:12.659Z,21.27
2019-03-30T10:14:11.069Z,21.07
2019-03-30T10:17:07.743Z,19.42
2019-03-30T10:20:06.109Z,20.30
2019-03-30T10:23:03.747Z,20.97
2019-03-30T10:26:03.392Z,21.50
2019-03-30T10:29:01.772Z,21.63
2019-03-30T10:31:59.891Z,20.53
2019-03-30T10:34:58.724Z,21.50
2019-03-30T10:37:54.838Z,21.60
2019-03-30T10:40:53.382Z,20.70
2019-03-30T10:43:49.472Z,20.48
2019-03-30T10:46:47.072Z,20.10
2019-03-30T10:49:49.664Z,20.70
2019-03-30T10:52:49.244Z,20.07
2019-03-30T10:55:47.005Z,18.60
2019-03-30T10:58:45.093Z,18.50
2019-03-30T11:01:42.122Z,20.03
2019-03-30T11:04:40.452Z,19.45
2019-03-30T11:07:38.307Z,20.73
2019-03-30T11:10:37.284Z,20.60
2019-03-30T11:13:34.724Z,20.30
2019-03-30T11:16:31.845Z,19.10
2019-03-30T11:19:30.938Z,19.80
2019-03-30T11:22:27.832Z,20.43
2019-03-30T11:25:26.655Z,19.53
2019-03-30T11:28:23.659Z,18.83
2019-03-30T11:31:21.630Z,19.90
2019-03-30T11:34:19.606Z,19.62
2019-03-30T11:37:16.399Z,21.93
2019-03-30T11:40:14.943Z,20.40
2019-03-30T11:43:12.032Z,20.67
2019-03-30T11:46:09.237Z,20.80
2019-03-30T11:49:06.953Z,19.67
2019-03-30T11:52:05.508Z,20.20
2019-03-30T11:55:02.245Z,20.17
2019-03-30T11:58:00.113Z,19.43
2019-03-30T12:00:57.956Z,20.20
2019-03-30T12:03:55.855Z,20.13
2019-03-30T12:06:54.808Z,18.93
2019-03-30T12:09:51.367Z,20.67
2019-03-30T12:12:49.658Z,20.03
2019-03-30T12:15:46.699Z,20.10
2019-03-30T12:18:44.603Z,18.40
2019-03-30T12:21:42.138Z,19.23
2019-03-30T12:24:41.075Z,18.73
2019-03-30T12:27:38.204Z,19.20
2019-03-30T12:30:37.021Z,19.83
2019-03-30T12:33:35.166Z,18.23
2019-03-30T12:36:33.033Z,20.10
2019-03-30T12:39:30.187Z,18.73
2019-03-30T12:42:28.455Z,16.43
2019-03-30T12:45:35.267Z,17.57
2019-03-30T12:48:30.050Z,19.67
2019-03-30T12:51:28.816Z,20.00
2019-03-30T12:54:27.947Z,20.03
2019-03-30T12:57:28.510Z,19.53
2019-03-30T13:00:26.145Z,20.37
2019-03-30T13:03:27.528Z,20.00
2019-03-30T13:06:26.216Z,19.80
2019-03-30T13:09:24.152Z,19.73
2019-03-30T13:12:21.835Z,19.47
2019-03-30T13:15:19.715Z,20.05
2019-03-30T13:18:29.732Z,17.70
2019-03-30T13:21:27.795Z,18.50
2019-03-30T13:24:26.748Z,19.15
2019-03-30T13:27:23.883Z,18.05
2019-03-30T13:30:21.032Z,17.50
2019-03-30T13:33:17.250Z,18.00
2019-03-30T13:36:16.116Z,19.40
2019-03-30T13:39:12.571Z,19.43
2019-03-30T13:42:11.169Z,21.27
2019-03-30T13:45:09.671Z,20.90
2019-03-30T13:48:06.717Z,21.52
2019-03-30T13:51:04.840Z,20.37
2019-03-30T13:54:03.059Z,21.60
2019-03-30T13:57:01.061Z,20.37
2019-03-30T13:59:58.875Z,20.10
2019-03-30T14:02:56.949Z,25.30
2019-03-30T14:05:54.365Z,21.47
2019-03-30T14:08:52.137Z,20.50
2019-03-30T14:11:52.333Z,19.00
2019-03-30T14:14:51.645Z,18.73
2019-03-30T14:17:49.821Z,20.43
2019-03-30T14:20:47.781Z,19.63
2019-03-30T14:23:46.051Z,21.23
2019-03-30T14:26:44.271Z,22.17
2019-03-30T14:29:41.099Z,20.30
2019-03-30T14:32:40.250Z,20.50
2019-03-30T14:35:37.238Z,21.37
2019-03-30T14:38:35.142Z,21.30
2019-03-30T14:41:33.285Z,21.90
2019-03-30T14:44:30.500Z,21.50
2019-03-30T14:47:34.168Z,20.47
2019-03-30T14:50:33.039Z,20.20
2019-03-30T14:53:33.478Z,23.50
2019-03-30T14:56:45.472Z,23.00
2019-03-30T14:59:34.187Z,24.07
2019-03-30T15:02:32.146Z,22.80
2019-03-30T15:05:29.350Z,25.50
2019-03-30T15:08:30.285Z,25.00
2019-03-30T15:11:27.697Z,28.67
2019-03-30T15:14:27.063Z,25.27
2019-03-30T15:17:24.991Z,26.83
2019-03-30T15:20:22.101Z,28.77
2019-03-30T15:23:21.247Z,27.80
2019-03-30T15:26:18.032Z,28.13
2019-03-30T15:29:15.996Z,27.45
2019-03-30T15:32:12.944Z,28.92
2019-03-30T15:35:10.932Z,29.50
2019-03-30T15:38:09.099Z,28.23
2019-03-30T15:41:07.249Z,25.97
2019-03-30T15:44:06.522Z,28.80
2019-03-30T15:47:05.159Z,26.87
2019-03-30T15:50:03.409Z,27.63
2019-03-30T15:53:01.185Z,25.90
2019-03-30T15:55:58.341Z,24.30
2019-03-30T15:59:01.801Z,22.70
2019-03-30T16:01:59.767Z,21.17
2019-03-30T16:05:02.494Z,20.50
2019-03-30T16:08:00.397Z,19.97
2019-03-30T16:10:58.456Z,20.30
2019-03-30T16:13:57.140Z,20.03
2019-03-30T16:16:54.864Z,21.70
2019-03-30T16:19:51.763Z,20.27
2019-03-30T16:22:50.783Z,20.83
2019-03-30T16:25:48.748Z,19.57
2019-03-30T16:28:46.779Z,19.07
2019-03-30T16:31:44.176Z,20.17
2019-03-30T16:37:05.982Z,20.07
2019-03-30T16:39:36.582Z,18.10
2019-03-30T16:42:07.771Z,17.92
2019-03-30T16:44:38.427Z,18.03
2019-03-30T16:47:09.030Z,16.63
2019-03-30T16:49:39.678Z,15.80
2019-03-30T16:52:10.272Z,17.40
2019-03-30T16:54:40.898Z,16.97
2019-03-30T16:57:11.524Z,15.93
2019-03-30T16:59:42.281Z,15.97
2019-03-30T17:02:12.854Z,17.13
2019-03-30T17:04:43.434Z,16.70
2019-03-30T17:07:13.985Z,16.93
2019-03-30T17:09:44.640Z,15.83
2019-03-30T17:12:15.253Z,14.70
2019-03-30T17:14:45.914Z,14.63
2019-03-30T17:17:16.601Z,14.40
2019-03-30T17:19:47.252Z,14.80
2019-03-30T17:22:17.854Z,13.43
2019-03-30T17:24:48.508Z,13.85
2019-03-30T17:27:19.129Z,14.87
2019-03-30T17:29:49.706Z,13.97
2019-03-30T17:32:20.358Z,15.50
2019-03-30T17:34:51.006Z,14.63
2019-03-30T17:37:21.641Z,16.33
2019-03-30T17:39:52.298Z,14.00
2019-03-30T17:42:22.936Z,12.63
2019-03-30T17:44:53.594Z,14.57
2019-03-30T17:47:24.188Z,14.67
2019-03-30T17:49:54.831Z,14.40
2019-03-30T17:52:25.505Z,13.50
2019-03-30T17:54:56.884Z,14.10
2019-03-30T17:57:27.520Z,14.05
2019-03-30T17:59:58.205Z,14.03
2019-03-30T18:02:29.027Z,13.63
2019-03-30T18:04:59.628Z,14.20
2019-03-30T18:07:30.224Z,14.53
2019-03-30T18:10:03.517Z,13.63
2019-03-30T18:12:33.150Z,13.67
2019-03-30T18:15:03.774Z,13.93
2019-03-30T18:17:34.369Z,14.50
2019-03-30T18:20:05.102Z,13.20
2019-03-30T18:22:35.846Z,20.67
2019-03-30T18:25:06.695Z,19.67
2019-03-30T18:27:37.323Z,15.80
2019-03-30T18:30:08.793Z,17.85
2019-03-30T18:32:40.041Z,17.23
2019-03-30T18:35:10.797Z,16.33
2019-03-30T18:37:41.572Z,17.90
2019-03-30T18:40:16.913Z,17.17
2019-03-30T18:42:47.580Z,15.10
2019-03-30T18:45:27.229Z,14.13
2019-03-30T18:48:13.707Z,15.63
2019-03-30T18:50:44.916Z,15.03
2019-03-30T18:53:16.695Z,16.27
2019-03-30T18:55:47.459Z,16.63
2019-03-30T18:58:18.072Z,15.23
2019-03-30T19:00:48.654Z,14.93
2019-03-30T19:03:20.257Z,14.00
2019-03-30T19:05:51.184Z,14.20
2019-03-30T19:08:21.819Z,12.80
2019-03-30T19:10:52.550Z,12.90
2019-03-30T19:13:23.168Z,13.90
2019-03-30T19:15:53.793Z,15.15
2019-03-30T19:18:24.444Z,14.78
2019-03-30T19:20:55.064Z,14.30
2019-03-30T19:23:25.801Z,15.70
2019-03-30T19:25:56.493Z,14.73
2019-03-30T19:28:27.317Z,15.00
2019-03-30T19:30:57.942Z,14.87
2019-03-30T19:33:28.636Z,14.27
2019-03-30T19:36:00.991Z,14.43
2019-03-30T19:38:31.655Z,14.80
2019-03-30T19:41:02.277Z,13.40
2019-03-30T19:43:32.897Z,14.53
2019-03-30T19:46:03.587Z,15.83
2019-03-30T19:48:36.934Z,14.87
2019-03-30T19:51:06.990Z,15.13
2019-03-30T19:53:37.740Z,15.17
2019-03-30T19:56:08.356Z,15.20
2019-03-30T19:58:39.034Z,14.00
2019-03-30T20:01:09.667Z,15.17
2019-03-30T20:03:41.311Z,16.50
2019-03-30T20:06:12.037Z,16.30
2019-03-30T20:08:42.636Z,16.83
2019-03-30T20:11:13.305Z,16.17
2019-03-30T20:13:43.962Z,17.80
2019-03-30T20:16:14.661Z,16.90
2019-03-30T20:18:45.317Z,15.80
2019-03-30T20:21:16.022Z,16.20
2019-03-30T20:23:46.657Z,15.80
2019-03-30T20:26:17.379Z,15.17
2019-03-30T20:28:48.069Z,15.38
2019-03-30T20:31:18.680Z,14.93
2019-03-30T20:33:49.273Z,15.30
2019-03-30T20:36:20.056Z,15.57
2019-03-30T20:38:50.685Z,15.10
2019-03-30T20:41:21.389Z,15.70
2019-03-30T20:43:52.097Z,15.50
2019-03-30T20:46:22.734Z,14.45
2019-03-30T20:48:54.581Z,15.77
2019-03-30T20:51:25.214Z,15.10
2019-03-30T20:53:55.827Z,14.13
2019-03-30T20:56:26.531Z,14.47
2019-03-30T20:58:57.256Z,19.10
2019-03-30T21:01:27.843Z,20.13
2019-03-30T21:03:58.443Z,18.77
2019-03-30T21:06:29.037Z,18.63
2019-03-30T21:08:59.752Z,17.90
2019-03-30T21:11:30.385Z,17.93
2019-03-30T21:14:01.029Z,17.17
2019-03-30T21:16:31.687Z,15.83
2019-03-30T21:19:02.325Z,14.67
2019-03-30T21:21:33.103Z,15.50
2019-03-30T21:24:03.770Z,15.30
2019-03-30T21:26:34.399Z,15.13
2019-03-30T21:29:05.100Z,15.40
2019-03-30T21:31:35.675Z,17.10
2019-03-30T21:34:06.359Z,17.50
2019-03-30T21:36:36.994Z,16.10
2019-03-30T21:39:09.196Z,17.33
2019-03-30T21:41:39.780Z,21.03
2019-03-30T21:44:21.359Z,21.80
2019-03-30T21:46:42.752Z,17.70
2019-03-30T21:49:13.358Z,17.73
2019-03-30T21:51:44.016Z,16.23
2019-03-30T21:54:14.563Z,15.90
2019-03-30T21:56:45.219Z,15.70
2019-03-30T21:59:15.828Z,16.33
2019-03-30T22:01:46.571Z,19.77
2019-03-30T22:04:17.188Z,23.00
2019-03-30T22:06:47.818Z,21.23
2019-03-30T22:09:18.559Z,17.20
2019-03-30T22:11:49.187Z,16.57
2019-03-30T22:14:19.849Z,16.83
2019-03-30T22:16:50.526Z,16.67
2019-03-30T22:19:21.123Z,17.13
2019-03-30T22:21:51.840Z,19.37
2019-03-30T22:24:23.253Z,16.67
2019-03-30T22:26:53.907Z,16.47
2019-03-30T22:29:24.546Z,17.10
2019-03-30T22:31:55.246Z,16.10
2019-03-30T22:34:25.844Z,16.37
2019-03-30T22:36:56.449Z,17.90
2019-03-30T22:39:27.058Z,16.23
2019-03-30T22:41:57.679Z,15.10
2019-03-30T22:44:28.316Z,15.20
2019-03-30T22:46:58.972Z,15.53
2019-03-30T22:49:29.643Z,15.80
2019-03-30T22:52:00.281Z,16.20
2019-03-30T22:54:30.856Z,15.20
2019-03-30T22:57:01.447Z,14.73
2019-03-30T22:59:32.012Z,15.15
2019-03-30T23:02:02.660Z,15.47
2019-03-30T23:04:33.262Z,14.45
2019-03-30T23:07:03.920Z,13.30
2019-03-30T23:09:34.528Z,12.43
2019-03-30T23:12:05.172Z,13.10
2019-03-30T23:14:35.781Z,12.97
2019-03-30T23:17:06.426Z,13.00
2019-03-30T23:19:37.077Z,11.80
2019-03-30T23:22:07.743Z,13.35
2019-03-30T23:24:38.377Z,12.17
2019-03-30T23:27:08.977Z,11.45
2019-03-30T23:29:39.662Z,12.07
2019-03-30T23:32:10.267Z,12.10
2019-03-30T23:34:40.928Z,11.63
2019-03-30T23:37:11.507Z,11.80
2019-03-30T23:39:42.108Z,11.00
2019-03-30T23:42:12.692Z,12.07
2019-03-30T23:44:43.269Z,12.05
2019-03-30T23:47:13.848Z,11.97
2019-03-30T23:49:44.451Z,11.70
2019-03-30T23:52:15.344Z,12.13
2019-03-30T23:54:45.989Z,12.00
2019-03-30T23:57:18.477Z,12.00
2019-03-30T23:59:49.095Z,11.33
